Terminal Aerodrome Forecast
Issued by NWS Pocatello, ID

Home | Current Version | Previous Version | Text Only | Print | Product List | Glossary On
Versions: 1 2 3 4 5 6 7 8 9 10 11 12 13 14 15 16 17 18 19 20
000
FTUS45 KPIH 260005 AAA
TAFIDA
TAF AMD
KIDA 260005Z 2600/2624 16015KT P6SM VCTS BKN060CB BKN080
     FM260300 VRB06KT P6SM VCSH SCT060
     FM260900 15006KT P6SM FEW025 FEW040
     FM261800 22012G22KT P6SM SCT050=

USA.gov is the U.S. government's official web portal to all federal, state and local government web resources and services.